Wetterstation Vordersexau
Wetterdaten: Woche 19.11.12 - 25.11.12 (KW47)
Datum Zeit Temp. A. Feuchte A. Luftdruck Regen Wind Richtung Taupunkt Windchill Windben
19.11.2012 00:00 3,0 C 81 % 1013,6 hPa 0,0 l/m 0,0 km/h NO 0,1 C 3,0 C 0,0 km/h
19.11.2012 01:00 2,1 C 81 % 1013,7 hPa 0,0 l/m 0,0 km/h O -0,8 C 2,1 C 0,0 km/h
19.11.2012 02:00 1,8 C 80 % 1013,6 hPa 0,0 l/m 0,0 km/h O -1,3 C 1,8 C 0,0 km/h
19.11.2012 03:00 1,3 C 80 % 1013,9 hPa 0,0 l/m 0,0 km/h O -1,8 C 1,3 C 0,0 km/h
19.11.2012 04:00 1,3 C 80 % 1013,6 hPa 0,0 l/m 0,0 km/h O -1,8 C 1,3 C 0,0 km/h
19.11.2012 05:00 0,5 C 80 % 1014,2 hPa 0,0 l/m 0,0 km/h O-NO -2,5 C 0,5 C 0,0 km/h
19.11.2012 06:00 -0,1 C 80 % 1014,2 hPa 0,0 l/m 0,0 km/h O-NO -3,1 C -0,1 C 0,0 km/h
19.11.2012 07:00 1,1 C 78 % 1014,5 hPa 0,0 l/m 0,0 km/h S-SO -2,3 C 1,1 C 0,0 km/h
19.11.2012 08:00 2,4 C 76 % 1014,9 hPa 0,0 l/m 0,0 km/h S -1,4 C 2,4 C 0,0 km/h
19.11.2012 09:00 3,9 C 73 % 1015,0 hPa 0,0 l/m 0,0 km/h S -0,5 C 3,9 C 0,0 km/h
19.11.2012 10:00 4,6 C 71 % 1015,3 hPa 0,0 l/m 0,0 km/h W -0,2 C 4,6 C 0,0 km/h
19.11.2012 11:00 4,9 C 68 % 1015,1 hPa 0,0 l/m 0,0 km/h SW -0,5 C 4,9 C 0,0 km/h
19.11.2012 12:00 5,3 C 68 % 1014,8 hPa 0,0 l/m 0,0 km/h W -0,1 C 5,3 C 0,0 km/h
19.11.2012 13:00 5,6 C 69 % 1014,8 hPa 0,0 l/m 0,0 km/h NW 0,4 C 5,6 C 0,0 km/h
19.11.2012 14:00 5,6 C 70 % 1014,5 hPa 0,0 l/m 0,0 km/h N-NO 0,6 C 5,6 C 0,0 km/h
19.11.2012 15:00 5,3 C 72 % 1014,7 hPa 0,0 l/m 0,0 km/h W-NW 0,7 C 5,3 C 0,0 km/h
19.11.2012 16:00 4,9 C 73 % 1014,8 hPa 0,0 l/m 0,0 km/h NO 0,5 C 4,9 C 0,0 km/h
19.11.2012 17:00 4,8 C 73 % 1015,5 hPa 0,0 l/m 0,0 km/h N-NO 0,4 C 4,8 C 0,0 km/h
19.11.2012 18:00 4,7 C 73 % 1015,5 hPa 0,0 l/m 0,0 km/h NO 0,3 C 4,7 C 0,0 km/h
19.11.2012 19:00 4,6 C 72 % 1015,7 hPa 0,0 l/m 0,0 km/h NO -0,0 C 4,6 C 0,0 km/h
19.11.2012 20:00 4,7 C 72 % 1016,2 hPa 0,0 l/m 0,0 km/h NO 0,1 C 4,7 C 0,0 km/h
19.11.2012 21:00 4,6 C 72 % 1016,2 hPa 0,0 l/m 0,0 km/h NO -0,0 C 4,6 C 0,0 km/h
19.11.2012 22:00 4,7 C 71 % 1016,4 hPa 0,0 l/m 0,0 km/h S-SO -0,1 C 4,7 C 0,0 km/h
19.11.2012 23:00 4,5 C 71 % 1016,1 hPa 0,0 l/m 0,0 km/h SO -0,3 C 4,5 C 0,0 km/h
20.11.2012 00:00 4,2 C 71 % 1016,4 hPa 0,0 l/m 0,0 km/h SO -0,6 C 4,2 C 0,0 km/h
20.11.2012 01:00 4,2 C 70 % 1016,7 hPa 0,0 l/m 0,0 km/h SO -0,8 C 4,2 C 0,0 km/h
20.11.2012 02:00 3,9 C 70 % 1016,7 hPa 0,0 l/m 0,0 km/h SO -1,1 C 3,9 C 0,0 km/h
20.11.2012 03:00 3,4 C 71 % 1016,9 hPa 0,0 l/m 0,0 km/h O-SO -1,3 C 3,4 C 0,0 km/h
20.11.2012 04:00 3,2 C 71 % 1016,8 hPa 0,0 l/m 0,0 km/h S-SO -1,5 C 3,2 C 0,0 km/h
20.11.2012 05:00 3,0 C 70 % 1017,0 hPa 0,0 l/m 0,0 km/h O -1,9 C 3,0 C 0,0 km/h
20.11.2012 06:00 2,9 C 70 % 1016,7 hPa 0,0 l/m 0,0 km/h SO -2,0 C 2,9 C 0,0 km/h
20.11.2012 07:00 2,8 C 70 % 1017,4 hPa 0,0 l/m 1,9 km/h SO -2,1 C 2,8 C 1,1 km/h
20.11.2012 08:00 2,8 C 69 % 1017,5 hPa 0,0 l/m 2,6 km/h S-SO -2,3 C 2,8 C 1,4 km/h
20.11.2012 09:00 3,2 C 69 % 1017,7 hPa 0,0 l/m 1,9 km/h SO -1,9 C 3,2 C 1,1 km/h
20.11.2012 10:00 3,9 C 69 % 1017,9 hPa 0,0 l/m 0,0 km/h O-SO -1,3 C 3,9 C 0,0 km/h
20.11.2012 11:00 4,7 C 72 % 1017,8 hPa 0,0 l/m 0,0 km/h NO 0,1 C 4,7 C 0,0 km/h
20.11.2012 12:00 4,4 C 79 % 1017,7 hPa 0,0 l/m 0,0 km/h O-NO 1,1 C 4,4 C 0,0 km/h
20.11.2012 13:00 4,9 C 83 % 1017,0 hPa 0,0 l/m 0,0 km/h S-SO 2,3 C 4,9 C 0,0 km/h
20.11.2012 14:00 4,6 C 85 % 1016,8 hPa 0,0 l/m 2,6 km/h W 2,3 C 4,6 C 1,4 km/h
20.11.2012 15:00 4,3 C 85 % 1016,9 hPa 0,0 l/m 0,0 km/h SO 2,0 C 4,3 C 0,0 km/h
20.11.2012 16:00 3,9 C 84 % 1016,7 hPa 0,0 l/m 0,0 km/h NO 1,4 C 3,9 C 0,0 km/h
20.11.2012 17:00 3,9 C 83 % 1016,7 hPa 0,0 l/m 0,0 km/h N-NO 1,3 C 3,9 C 0,0 km/h
20.11.2012 18:00 3,8 C 82 % 1017,0 hPa 0,0 l/m 0,0 km/h NW 1,0 C 3,8 C 0,0 km/h
20.11.2012 19:00 3,6 C 80 % 1017,2 hPa 0,0 l/m 0,0 km/h SO 0,5 C 3,6 C 0,0 km/h
20.11.2012 20:00 3,5 C 79 % 1017,1 hPa 0,0 l/m 1,9 km/h W-SW 0,2 C 3,5 C 1,1 km/h
20.11.2012 21:00 3,5 C 78 % 1016,6 hPa 0,0 l/m 0,0 km/h W-NW 0,0 C 3,5 C 0,0 km/h
20.11.2012 22:00 3,4 C 77 % 1016,6 hPa 0,0 l/m 0,0 km/h N-NO -0,2 C 3,4 C 0,0 km/h
20.11.2012 23:00 3,3 C 76 % 1016,7 hPa 0,4 l/m 0,0 km/h S-SO -0,5 C 3,3 C 0,0 km/h
21.11.2012 00:00 3,3 C 75 % 1016,4 hPa 0,0 l/m 3,9 km/h S-SO -0,7 C 3,3 C 2,2 km/h
21.11.2012 01:00 3,1 C 75 % 1015,9 hPa 0,0 l/m 0,0 km/h N-NO -0,9 C 3,1 C 0,0 km/h
21.11.2012 02:00 3,0 C 76 % 1015,5 hPa 0,0 l/m 1,9 km/h S-SW -0,8 C 3,0 C 1,1 km/h
21.11.2012 03:00 2,9 C 76 % 1015,3 hPa 0,0 l/m 1,3 km/h SO -0,9 C 2,9 C 0,7 km/h
21.11.2012 04:00 2,6 C 78 % 1014,7 hPa 0,0 l/m 0,0 km/h W-NW -0,8 C 2,6 C 0,0 km/h
21.11.2012 05:00 2,4 C 78 % 1014,8 hPa 0,0 l/m 0,0 km/h SO -1,0 C 2,4 C 0,0 km/h
21.11.2012 06:00 2,4 C 78 % 1014,7 hPa 0,0 l/m 0,0 km/h SO -1,0 C 2,4 C 0,0 km/h
21.11.2012 07:00 2,2 C 78 % 1014,6 hPa 0,0 l/m 0,0 km/h S-SO -1,2 C 2,2 C 0,0 km/h
21.11.2012 08:00 2,1 C 77 % 1014,6 hPa 0,0 l/m 0,0 km/h S-SO -1,5 C 2,1 C 0,0 km/h
21.11.2012 09:00 2,4 C 78 % 1014,8 hPa 0,0 l/m 1,9 km/h W -1,0 C 2,4 C 1,1 km/h
21.11.2012 10:00 3,2 C 79 % 1014,9 hPa 0,0 l/m 0,0 km/h NW -0,1 C 3,2 C 0,0 km/h
21.11.2012 11:00 4,2 C 85 % 1014,7 hPa 0,0 l/m 0,0 km/h S 1,9 C 4,2 C 0,0 km/h
21.11.2012 12:00 4,8 C 87 % 1014,8 hPa 0,0 l/m 0,0 km/h W-NW 2,8 C 4,8 C 0,0 km/h
21.11.2012 13:00 4,8 C 87 % 1015,3 hPa 0,0 l/m 1,3 km/h SO 2,8 C 4,8 C 0,7 km/h
21.11.2012 14:00 6,2 C 87 % 1014,8 hPa 0,0 l/m 0,0 km/h N-NO 4,2 C 6,2 C 0,0 km/h
21.11.2012 15:00 8,8 C 82 % 1015,6 hPa 0,0 l/m 0,0 km/h NO 5,9 C 8,8 C 0,0 km/h
21.11.2012 16:00 6,0 C 86 % 1015,8 hPa 0,0 l/m 0,0 km/h NO 3,8 C 6,0 C 0,0 km/h
21.11.2012 17:00 6,4 C 86 % 1016,4 hPa 0,0 l/m 3,2 km/h NO 4,2 C 6,4 C 1,8 km/h
21.11.2012 18:00 7,1 C 86 % 1017,1 hPa 0,0 l/m 0,0 km/h NW 4,9 C 7,1 C 0,0 km/h
21.11.2012 19:00 9,8 C 84 % 1017,8 hPa 0,0 l/m 4,5 km/h N-NO 7,2 C 9,8 C 2,5 km/h
21.11.2012 20:00 9,9 C 83 % 1018,4 hPa 0,0 l/m 5,8 km/h NW 7,2 C 9,9 C 3,2 km/h
21.11.2012 21:00 9,1 C 85 % 1019,4 hPa 0,0 l/m 0,0 km/h W 6,7 C 9,1 C 0,0 km/h
21.11.2012 22:00 8,5 C 85 % 1019,9 hPa 0,4 l/m 0,0 km/h NO 6,1 C 8,5 C 0,0 km/h
21.11.2012 23:00 8,1 C 84 % 1020,2 hPa 0,0 l/m 0,0 km/h O-NO 5,6 C 8,1 C 0,0 km/h
22.11.2012 00:00 7,9 C 82 % 1020,5 hPa 0,4 l/m 0,0 km/h O-NO 5,0 C 7,9 C 0,0 km/h
22.11.2012 01:00 7,9 C 80 % 1020,9 hPa 0,0 l/m 0,0 km/h O-SO 4,7 C 7,9 C 0,0 km/h
22.11.2012 02:00 7,9 C 80 % 1021,1 hPa 0,0 l/m 0,0 km/h O-SO 4,7 C 7,9 C 0,0 km/h
22.11.2012 03:00 7,8 C 78 % 1021,3 hPa 0,0 l/m 0,0 km/h O-SO 4,2 C 7,8 C 0,0 km/h
22.11.2012 04:00 7,6 C 78 % 1021,0 hPa 0,0 l/m 0,0 km/h O-SO 4,0 C 7,6 C 0,0 km/h
22.11.2012 05:00 7,9 C 76 % 1021,1 hPa 0,0 l/m 0,0 km/h O-SO 3,9 C 7,9 C 0,0 km/h
22.11.2012 06:00 8,1 C 75 % 1021,4 hPa 0,0 l/m 0,0 km/h O-SO 3,9 C 8,1 C 0,0 km/h
22.11.2012 07:00 7,6 C 75 % 1021,3 hPa 0,0 l/m 0,0 km/h O-SO 3,5 C 7,6 C 0,0 km/h
22.11.2012 08:00 7,8 C 74 % 1022,0 hPa 0,0 l/m 0,0 km/h N-NO 3,5 C 7,8 C 0,0 km/h
22.11.2012 09:00 8,4 C 72 % 1022,1 hPa 0,0 l/m 0,0 km/h N-NO 3,7 C 8,4 C 0,0 km/h
22.11.2012 10:00 8,9 C 73 % 1022,3 hPa 0,0 l/m 0,0 km/h W-NW 4,3 C 8,9 C 0,0 km/h
22.11.2012 11:00 10,2 C 81 % 1022,2 hPa 0,0 l/m 1,9 km/h NW 7,1 C 10,2 C 1,1 km/h
22.11.2012 12:00 11,4 C 86 % 1021,7 hPa 0,0 l/m 0,0 km/h N 9,1 C 11,4 C 0,0 km/h
22.11.2012 13:00 11,1 C 86 % 1021,3 hPa 0,0 l/m 0,0 km/h W-NW 8,8 C 11,1 C 0,0 km/h
22.11.2012 14:00 10,3 C 86 % 1020,9 hPa 0,0 l/m 0,0 km/h NW 8,1 C 10,3 C 0,0 km/h
22.11.2012 15:00 10,0 C 86 % 1020,7 hPa 0,0 l/m 0,0 km/h N-NO 7,8 C 10,0 C 0,0 km/h
22.11.2012 16:00 9,5 C 86 % 1020,7 hPa 0,0 l/m 0,0 km/h N-NO 7,3 C 9,5 C 0,0 km/h
22.11.2012 17:00 8,3 C 86 % 1020,1 hPa 0,0 l/m 0,0 km/h N-NO 6,1 C 8,3 C 0,0 km/h
22.11.2012 18:00 7,6 C 85 % 1020,0 hPa 0,0 l/m 0,0 km/h N-NO 5,2 C 7,6 C 0,0 km/h
22.11.2012 19:00 7,7 C 84 % 1019,8 hPa 0,0 l/m 0,0 km/h N-NO 5,2 C 7,7 C 0,0 km/h
22.11.2012 20:00 7,6 C 83 % 1019,6 hPa 0,0 l/m 0,0 km/h O-SO 4,9 C 7,6 C 0,0 km/h
22.11.2012 21:00 7,1 C 82 % 1019,5 hPa 0,0 l/m 0,0 km/h SO 4,2 C 7,1 C 0,0 km/h
22.11.2012 22:00 4,8 C 83 % 1019,8 hPa 0,0 l/m 0,0 km/h O-NO 2,2 C 4,8 C 0,0 km/h
22.11.2012 23:00 5,9 C 80 % 1019,7 hPa 0,0 l/m 0,0 km/h O-SO 2,7 C 5,9 C 0,0 km/h
23.11.2012 00:00 5,9 C 78 % 1019,5 hPa 0,0 l/m 0,0 km/h O-SO 2,4 C 5,9 C 0,0 km/h
23.11.2012 01:00 4,3 C 80 % 1019,2 hPa 0,0 l/m 1,3 km/h S-SO 1,2 C 4,3 C 0,7 km/h
23.11.2012 02:00 3,6 C 80 % 1019,4 hPa 0,0 l/m 0,0 km/h O 0,5 C 3,6 C 0,0 km/h
23.11.2012 03:00 3,5 C 79 % 1018,6 hPa 0,0 l/m 0,0 km/h S-SO 0,2 C 3,5 C 0,0 km/h
23.11.2012 04:00 3,3 C 77 % 1018,0 hPa 0,0 l/m 3,2 km/h S-SO -0,3 C 3,3 C 1,8 km/h
23.11.2012 05:00 2,8 C 77 % 1017,7 hPa 0,0 l/m 0,0 km/h S-SO -0,8 C 2,8 C 0,0 km/h
23.11.2012 06:00 2,5 C 76 % 1018,1 hPa 0,0 l/m 1,9 km/h SO -1,3 C 2,5 C 1,1 km/h
23.11.2012 07:00 1,8 C 76 % 1017,9 hPa 0,0 l/m 0,0 km/h S-SO -2,0 C 1,8 C 0,0 km/h
23.11.2012 08:00 2,1 C 74 % 1017,7 hPa 0,0 l/m 0,0 km/h S-SO -2,0 C 2,1 C 0,0 km/h
23.11.2012 09:00 3,8 C 71 % 1018,1 hPa 0,0 l/m 0,0 km/h S-SO -1,0 C 3,8 C 0,0 km/h
23.11.2012 10:00 6,6 C 64 % 1018,3 hPa 0,0 l/m 2,6 km/h S-SO 0,3 C 6,6 C 1,4 km/h
23.11.2012 11:00 9,2 C 63 % 1018,2 hPa 0,0 l/m 0,0 km/h W 2,5 C 9,2 C 0,0 km/h
23.11.2012 12:00 12,8 C 86 % 1018,1 hPa 0,0 l/m 1,3 km/h W 10,5 C 12,8 C 0,7 km/h
23.11.2012 13:00 14,4 C 67 % 1017,6 hPa 0,0 l/m 11,0 km/h W-NW 8,4 C 12,0 C 6,1 km/h
23.11.2012 14:00 14,3 C 63 % 1017,6 hPa 0,0 l/m 16,2 km/h W 7,4 C 9,9 C 9,0 km/h
23.11.2012 15:00 12,9 C 67 % 1017,8 hPa 0,0 l/m 3,2 km/h W 6,9 C 12,9 C 1,8 km/h
23.11.2012 16:00 10,5 C 71 % 1017,7 hPa 0,0 l/m 1,3 km/h S-SO 5,5 C 10,5 C 0,7 km/h
23.11.2012 17:00 8,1 C 80 % 1018,4 hPa 0,0 l/m 0,0 km/h O 4,9 C 8,1 C 0,0 km/h
23.11.2012 18:00 7,2 C 84 % 1018,4 hPa 0,0 l/m 0,0 km/h O-SO 4,7 C 7,2 C 0,0 km/h
23.11.2012 19:00 7,6 C 84 % 1018,4 hPa 0,0 l/m 0,0 km/h O-NO 5,1 C 7,6 C 0,0 km/h
23.11.2012 20:00 7,2 C 85 % 1018,2 hPa 0,0 l/m 0,0 km/h SO 4,9 C 7,2 C 0,0 km/h
23.11.2012 21:00 6,8 C 85 % 1018,4 hPa 0,0 l/m 0,0 km/h S-SO 4,5 C 6,8 C 0,0 km/h
23.11.2012 22:00 7,6 C 86 % 1017,6 hPa 0,0 l/m 4,5 km/h O-NO 5,4 C 7,6 C 2,5 km/h
23.11.2012 23:00 7,8 C 86 % 1017,9 hPa 0,0 l/m 1,3 km/h NO 5,6 C 7,8 C 0,7 km/h
24.11.2012 00:00 6,6 C 86 % 1017,9 hPa 0,0 l/m 0,0 km/h NO 4,4 C 6,6 C 0,0 km/h
24.11.2012 01:00 6,1 C 85 % 1017,9 hPa 0,0 l/m 0,0 km/h O-SO 3,8 C 6,1 C 0,0 km/h
24.11.2012 02:00 6,4 C 85 % 1017,9 hPa 0,0 l/m 0,0 km/h SO 4,1 C 6,4 C 0,0 km/h
24.11.2012 03:00 6,6 C 85 % 1017,7 hPa 0,0 l/m 0,0 km/h O-SO 4,3 C 6,6 C 0,0 km/h
24.11.2012 04:00 6,6 C 85 % 1017,5 hPa 0,0 l/m 0,0 km/h SO 4,3 C 6,6 C 0,0 km/h
24.11.2012 05:00 5,6 C 86 % 1017,3 hPa 0,0 l/m 0,0 km/h O-NO 3,4 C 5,6 C 0,0 km/h
24.11.2012 06:00 6,1 C 84 % 1017,1 hPa 0,0 l/m 0,0 km/h SO 3,6 C 6,1 C 0,0 km/h
24.11.2012 07:00 5,9 C 84 % 1017,1 hPa 0,0 l/m 0,0 km/h SO 3,4 C 5,9 C 0,0 km/h
24.11.2012 08:00 6,9 C 82 % 1017,1 hPa 0,0 l/m 2,6 km/h SO 4,0 C 6,9 C 1,4 km/h
24.11.2012 09:00 8,2 C 84 % 1017,1 hPa 0,0 l/m 0,6 km/h S-SO 5,7 C 8,2 C 0,4 km/h
24.11.2012 10:00 12,0 C 80 % 1016,9 hPa 0,0 l/m 7,8 km/h SO 8,7 C 11,1 C 4,3 km/h
24.11.2012 11:00 14,4 C 77 % 1016,5 hPa 0,0 l/m 3,9 km/h N-NO 10,4 C 14,4 C 2,2 km/h
24.11.2012 12:00 15,8 C 73 % 1015,6 hPa 0,0 l/m 0,0 km/h NW 11,0 C 15,8 C 0,0 km/h
24.11.2012 13:00 15,9 C 70 % 1014,8 hPa 0,0 l/m 0,0 km/h N-NW 10,4 C 15,9 C 0,0 km/h
24.11.2012 14:00 15,2 C 72 % 1014,1 hPa 0,0 l/m 1,3 km/h N-NW 10,2 C 15,2 C 0,7 km/h
24.11.2012 15:00 13,9 C 74 % 1013,9 hPa 0,0 l/m 0,0 km/h N-NW 9,3 C 13,9 C 0,0 km/h
24.11.2012 16:00 11,5 C 81 % 1013,8 hPa 0,0 l/m 0,0 km/h N-NW 8,4 C 11,5 C 0,0 km/h
24.11.2012 17:00 10,1 C 85 % 1013,7 hPa 0,0 l/m 0,0 km/h O-NO 7,7 C 10,1 C 0,0 km/h
24.11.2012 18:00 9,9 C 85 % 1013,0 hPa 0,0 l/m 0,0 km/h O-NO 7,5 C 9,9 C 0,0 km/h
24.11.2012 19:00 9,8 C 85 % 1012,8 hPa 0,0 l/m 0,0 km/h NO 7,4 C 9,8 C 0,0 km/h
24.11.2012 20:00 10,1 C 81 % 1012,3 hPa 0,0 l/m 1,9 km/h O-SO 7,0 C 10,1 C 1,1 km/h
24.11.2012 21:00 8,8 C 85 % 1012,7 hPa 0,0 l/m 0,0 km/h O-NO 6,4 C 8,8 C 0,0 km/h
24.11.2012 22:00 7,6 C 86 % 1012,8 hPa 0,0 l/m 0,0 km/h W-NW 5,4 C 7,6 C 0,0 km/h
24.11.2012 23:00 7,8 C 86 % 1012,6 hPa 0,0 l/m 0,0 km/h O-SO 5,6 C 7,8 C 0,0 km/h
25.11.2012 00:00 7,1 C 86 % 1013,1 hPa 0,0 l/m 0,0 km/h O-SO 4,9 C 7,1 C 0,0 km/h
25.11.2012 01:00 7,3 C 85 % 1013,1 hPa 0,0 l/m 0,0 km/h W-SW 4,9 C 7,3 C 0,0 km/h
25.11.2012 02:00 7,9 C 86 % 1013,4 hPa 0,0 l/m 0,0 km/h W 5,7 C 7,9 C 0,0 km/h
25.11.2012 03:00 10,9 C 77 % 1013,6 hPa 0,0 l/m 0,0 km/h NW 7,0 C 10,9 C 0,0 km/h
25.11.2012 04:00 11,0 C 76 % 1013,1 hPa 0,0 l/m 0,0 km/h NO 6,9 C 11,0 C 0,0 km/h
25.11.2012 05:00 10,5 C 74 % 1013,1 hPa 0,0 l/m 0,0 km/h W-SW 6,1 C 10,5 C 0,0 km/h
25.11.2012 06:00 12,6 C 73 % 1013,0 hPa 0,0 l/m 3,2 km/h W 7,9 C 12,6 C 1,8 km/h
25.11.2012 07:00 13,1 C 72 % 1013,3 hPa 0,0 l/m 0,0 km/h SW 8,2 C 13,1 C 0,0 km/h
25.11.2012 08:00 13,7 C 71 % 1013,7 hPa 0,0 l/m 24,0 km/h SW 8,5 C 7,1 C 13,3 km/h
25.11.2012 09:00 13,9 C 73 % 1014,0 hPa 0,0 l/m 5,8 km/h W 9,1 C 13,9 C 3,2 km/h
25.11.2012 10:00 14,2 C 74 % 1014,4 hPa 0,0 l/m 16,8 km/h SW 9,6 C 9,6 C 9,4 km/h
25.11.2012 11:00 13,9 C 75 % 1014,8 hPa 0,0 l/m 18,8 km/h SW 9,5 C 8,7 C 10,4 km/h
25.11.2012 12:00 14,2 C 73 % 1014,9 hPa 0,0 l/m 26,6 km/h SW 9,4 C 7,2 C 14,8 km/h
25.11.2012 13:00 14,3 C 69 % 1015,0 hPa 0,0 l/m 15,6 km/h W-SW 8,7 C 10,1 C 8,6 km/h
25.11.2012 14:00 14,0 C 67 % 1015,2 hPa 0,0 l/m 22,0 km/h W-NW 8,0 C 7,9 C 12,2 km/h
25.11.2012 15:00 13,1 C 68 % 1015,1 hPa 0,0 l/m 16,2 km/h W 7,3 C 8,5 C 9,0 km/h
25.11.2012 16:00 11,8 C 70 % 1015,1 hPa 0,0 l/m 0,0 km/h N-NW 6,5 C 11,8 C 0,0 km/h
25.11.2012 17:00 10,6 C 73 % 1015,2 hPa 0,0 l/m 0,0 km/h W 6,0 C 10,6 C 0,0 km/h
25.11.2012 18:00 10,4 C 74 % 1015,2 hPa 0,0 l/m 0,0 km/h O-NO 6,0 C 10,4 C 0,0 km/h
25.11.2012 19:00 9,8 C 78 % 1015,0 hPa 0,0 l/m 0,0 km/h NO 6,1 C 9,8 C 0,0 km/h
25.11.2012 20:00 8,9 C 81 % 1014,9 hPa 0,0 l/m 0,6 km/h NO 5,8 C 8,9 C 0,4 km/h
25.11.2012 21:00 7,6 C 83 % 1014,5 hPa 0,0 l/m 0,0 km/h NO 4,9 C 7,6 C 0,0 km/h
25.11.2012 22:00 7,5 C 84 % 1013,9 hPa 0,0 l/m 0,0 km/h SO 5,0 C 7,5 C 0,0 km/h
25.11.2012 23:00 7,6 C 84 % 1013,3 hPa 0,0 l/m 0,0 km/h SO 5,1 C 7,6 C 0,0 km/h
Min-Datum _ 19.11.12 23.11.12 24.11.12 - 19.11.12 - 19.11.12 19.11.12 19.11.12
_ Min-Zeit 06:19 11:19 20:19 - 00:19 - 06:19 06:19 00:19
Minimum _ -0,1 C 63 % 1012,3 hPa - 0,0 km/h - -3,1 C -0,1 C 0,0 km/h
Max-Datum _ 24.11.12 21.11.12 22.11.12 20.11.12 25.11.12 - 24.11.12 24.11.12 25.11.12
_ Max-Zeit 13:19 12:19 10:19 23:19 12:19 - 12:19 13:19 12:19
Maximum _ 15,9 C 87 % 1022,3 hPa 0,4 l/m 26,6 km/h
SW
- 11,0 C 15,9 C 14,8 km/h
SW
Durchschnitt _ 6,9 C 78 % 1016,7 hPa #1,1 l/m 1,5 km/h SO 3,3 C 6,6 C 0,8 km/h
www.sexauwetter.de